Latest Weather Observations for Meekatharra

IDW60801

Issued at 3:33 pm WST Tuesday 17 October 2017 (issued every 30 minutes, with the page automatically refreshed every 10 minutes)

About weather observations | Map of weather stations | Latest weather observations for WA | Other Formats
Station Details ID: 007045 Name: MEEKATHARRA AIRPORT Lat: -26.61 Lon: 118.54 Height: 517.0 m
Data from the previous 72 hours. | See also: Recent months at Meekatharra
Date/Time
WST
Temp
°C
App
Temp
°C
Dew
Point
°C
Rel
Hum
%
Delta-T
°C
Wind Press
QNH
hPa
Press
MSL
hPa
Rain since
9am
mm
Dir  Spd
km/h
Gust
km/h
Spd
kts
Gust
kts
17/03:30pm 25.7 20.9 0.4 19 12.1 W 15 26 8 14 1011.1 1008.6 0.0
17/03:00pm 25.7 20.7 1.1 20 11.9 W 17 35 9 19 1011.3 1008.8 0.0
17/02:30pm 25.0 19.9 0.5 20 11.7 WNW 17 28 9 15 1011.4 1008.9 0.0
17/02:00pm 24.4 19.7 0.7 21 11.3 W 15 26 8 14 1011.7 1009.2 0.0
17/01:30pm 24.2 20.4 1.8 23 10.9 WNW 11 20 6 11 1012.0 1009.4 0.0
17/01:00pm 24.1 20.5 2.9 25 10.5 W 11 41 6 22 1012.3 1009.8 0.0
17/12:30pm 22.6 19.3 2.7 27 9.7 WSW 9 20 5 11 1012.8 1010.3 0.0
17/12:00pm 21.6 17.9 2.3 28 9.3 WSW 11 20 6 11 1013.0 1010.5 0.0
17/11:30am 21.1 17.2 3.3 31 8.7 NW 13 20 7 11 1013.4 1010.9 0.0
17/11:00am 20.0 17.5 3.7 34 8.0 NW 6 13 3 7 1013.8 1011.3 0.0
17/10:30am 19.0 16.0 4.0 37 7.3 SW 9 19 5 10 1014.3 1011.8 0.0
17/10:00am 18.7 14.7 4.8 40 6.9 SSW 15 26 8 14 1014.7 1012.2 0.0
17/09:30am 17.2 14.0 4.9 44 6.0 SSW 11 19 6 10 1014.8 1012.3 0.0
17/09:00am 17.0 13.7 4.7 44 6.0 SSW 11 17 6 9 1014.8 1012.3 -
17/08:30am 16.1 12.9 5.1 48 5.4 SSW 11 17 6 9 1014.8 1012.3 -
17/08:00am 15.4 11.5 5.3 51 4.9 SSW 15 20 8 11 1014.6 1012.1 -
17/07:30am 14.8 10.6 5.6 54 4.5 SSW 17 24 9 13 1014.5 1012.0 -
17/07:00am 13.6 9.3 5.3 57 4.0 SSW 17 22 9 12 1014.3 1011.8 -
17/06:30am 13.0 9.8 4.9 58 3.9 SSW 11 19 6 10 1014.1 1011.6 -
17/06:00am 12.3 9.3 4.3 58 3.7 SSW 9 11 5 6 1013.6 1011.1 -
17/05:30am 12.0 8.2 3.8 57 3.8 SSW 13 17 7 9 1013.3 1010.8 -
17/05:00am 12.2 9.1 3.4 55 4.0 SSW 9 13 5 7 1012.9 1010.4 -
17/04:30am 12.7 8.8 3.6 54 4.2 SSW 13 17 7 9 1012.6 1010.1 -
17/04:00am 13.3 7.8 3.9 53 4.4 SW 22 28 12 15 1012.4 1009.9 -
17/03:30am 13.7 8.6 4.3 53 4.4 SSW 20 30 11 16 1012.0 1009.4 -
17/03:00am 14.2 8.9 4.8 53 4.5 SW 22 28 12 15 1011.7 1009.2 -
17/02:30am 14.6 9.8 4.9 52 4.7 SW 19 26 10 14 1011.7 1009.2 -
17/02:00am 15.2 9.5 4.9 50 5.0 SW 24 33 13 18 1011.6 1009.1 -
17/01:30am 15.7 9.6 5.0 49 5.2 SW 26 33 14 18 1011.6 1009.1 -
17/01:00am 16.4 10.7 5.1 47 5.5 SW 24 37 13 20 1011.7 1009.2 -
17/12:30am 17.7 12.5 3.6 39 6.8 WSW 20 33 11 18 1011.9 1009.3 -
17/12:00am 18.1 13.9 5.7 44 6.2 WSW 17 26 9 14 1012.1 1009.5 -
 
Date/Time
WST
Temp
°C
App
Temp
°C
Dew
Point
°C
Rel
Hum
%
Delta-T
°C
Wind Press
QNH
hPa
Press
MSL
hPa
Rain since
9am
mm
Dir  Spd
km/h
Gust
km/h
Spd
kts
Gust
kts
16/11:30pm 18.7 13.6 6.2 44 6.4 WSW 22 33 12 18 1012.3 1009.8 -
16/11:00pm 19.2 14.8 6.7 44 6.4 WSW 19 28 10 15 1012.3 1009.8 -
16/10:30pm 19.9 15.1 7.3 44 6.6 WSW 22 30 12 16 1012.2 1009.7 -
16/10:00pm 20.4 16.4 8.1 45 6.6 W 19 32 10 17 1012.2 1009.7 -
16/09:30pm 20.9 16.8 8.5 45 6.7 W 20 32 11 17 1012.0 1009.4 -
16/09:00pm 21.2 16.8 8.8 45 6.7 WSW 22 35 12 19 1012.0 1009.4 -
16/08:30pm 21.8 17.5 9.3 45 6.9 W 22 32 12 17 1011.9 1009.3 -
16/08:00pm 22.5 17.8 9.3 43 7.3 W 24 37 13 20 1011.5 1009.0 -
16/07:30pm 23.1 18.2 9.8 43 7.4 W 26 39 14 21 1011.1 1008.6 -
16/07:00pm 23.8 18.0 9.4 40 8.0 W 30 41 16 22 1010.6 1008.1 -
16/06:30pm 24.4 19.4 9.6 39 8.3 W 26 41 14 22 1010.0 1007.4 -
16/06:09pm 24.9 19.5 9.6 38 8.6 W 28 46 15 25 1009.4 1006.9 -
16/06:00pm 25.3 19.5 9.6 37 8.8 W 30 46 16 25 1009.3 1006.8 -
16/05:51pm 25.6 20.2 9.4 36 9.1 W 28 46 15 25 1009.1 1006.6 -
16/05:30pm 26.3 20.7 10.0 36 9.3 W 30 44 16 24 1008.9 1006.4 -
16/05:00pm 27.5 22.2 9.8 33 10.1 W 28 39 15 21 1008.4 1005.8 -
16/04:36pm 28.0 22.4 8.8 30 10.8 NW 28 46 15 25 1008.2 1005.6 -
16/04:30pm 27.7 21.3 8.6 30 10.7 NW 32 46 17 25 1008.1 1005.5 -
16/04:00pm 27.8 21.2 7.6 28 11.1 WNW 32 52 17 28 1008.0 1005.4 -
16/03:31pm 28.6 21.6 6.1 24 12.1 WNW 32 50 17 27 1007.9 1005.3 -
16/03:30pm 28.5 21.9 6.0 24 12.1 WNW 30 46 16 25 1007.9 1005.3 -
16/03:18pm 29.2 22.7 6.6 24 12.3 NW 30 48 16 26 1008.0 1005.4 -
16/03:00pm 28.8 22.0 6.8 25 12.0 NW 32 46 17 25 1008.1 1005.5 -
16/02:52pm 29.2 23.1 6.6 24 12.3 NW 28 46 15 25 1008.2 1005.6 -
16/02:30pm 28.5 22.0 6.6 25 11.9 WNW 30 46 16 25 1008.5 1005.9 -
16/02:27pm 28.7 22.5 6.1 24 12.2 NW 28 46 15 25 1008.5 1005.9 -
16/02:00pm 28.6 22.5 6.7 25 11.9 NW 28 39 15 21 1008.7 1006.1 -
16/01:30pm 28.3 22.7 7.0 26 11.6 WNW 26 41 14 22 1009.1 1006.6 -
16/01:03pm 27.0 21.0 6.9 28 10.9 WNW 28 50 15 27 1009.2 1006.7 -
16/01:00pm 27.7 22.6 7.5 28 11.1 WNW 24 46 13 25 1009.3 1006.8 -
16/12:34pm 26.8 20.9 7.3 29 10.6 W 28 48 15 26 1009.7 1007.2 -
16/09:30am 22.2 18.3 10.7 48 6.5 WNW 22 37 12 20 1011.3 1008.8 0.0
16/09:00am 21.7 18.4 11.7 53 5.7 WNW 20 33 11 18 1011.4 1008.9 0.0
16/08:30am 20.7 17.7 12.4 59 4.8 WNW 20 35 11 19 1011.5 1009.0 0.0
16/08:00am 20.4 17.0 12.6 61 4.5 W 22 35 12 19 1011.7 1009.2 0.0
16/07:30am 19.8 16.1 11.6 59 4.6 W 22 33 12 18 1011.2 1008.7 0.0
16/07:00am 19.5 16.1 11.3 59 4.6 WNW 20 30 11 16 1010.8 1008.3 0.0
16/06:30am 18.8 15.6 9.8 56 4.9 WNW 17 30 9 16 1010.5 1008.0 0.0
16/06:00am 18.5 15.2 6.4 45 6.2 WNW 13 22 7 12 1010.3 1007.7 0.0
16/05:30am 18.4 14.6 5.6 43 6.4 W 15 20 8 11 1009.4 1006.9 0.0
16/05:00am 19.0 14.8 4.0 37 7.3 W 15 20 8 11 1009.0 1006.5 0.0
16/04:30am 19.3 15.2 2.2 32 8.1 W 13 17 7 9 1008.5 1005.9 0.0
16/04:00am 19.4 15.5 1.4 30 8.4 W 11 15 6 8 1008.0 1005.4 0.0
16/03:30am 20.3 16.3 0.7 27 9.1 WNW 11 15 6 8 1008.1 1005.5 0.0
16/03:00am 21.0 16.2 0.2 25 9.6 W 15 20 8 11 1008.1 1005.5 0.0
16/02:30am 21.5 16.9 -1.1 22 10.2 WNW 13 19 7 10 1007.8 1005.2 0.0
16/02:00am 20.9 16.4 -2.9 20 10.3 WNW 11 13 6 7 1007.8 1005.2 0.0
16/01:30am 20.3 16.2 -3.4 20 10.1 NW 9 11 5 6 1007.6 1005.1 0.0
16/01:00am 21.2 16.6 -4.0 18 10.7 NW 11 13 6 7 1007.9 1005.3 0.0
16/12:30am 21.7 17.1 -4.4 17 11.0 WNW 11 13 6 7 1008.3 1005.7 0.0
16/12:00am 22.5 18.2 -4.5 16 11.5 WNW 9 11 5 6 1008.5 1005.9 0.0
 
Date/Time
WST
Temp
°C
App
Temp
°C
Dew
Point
°C
Rel
Hum
%
Delta-T
°C
Wind Press
QNH
hPa
Press
MSL
hPa
Rain since
9am
mm
Dir  Spd
km/h
Gust
km/h
Spd
kts
Gust
kts
15/11:30pm 23.4 18.7 -4.7 15 12.0 WNW 11 13 6 7 1008.7 1006.1 0.0
15/11:00pm 23.7 19.4 -5.3 14 12.3 WNW 9 11 5 6 1008.9 1006.4 0.0
15/10:30pm 24.8 20.4 -5.5 13 12.9 WNW 9 13 5 7 1009.2 1006.7 0.0
15/10:00pm 24.9 20.1 -6.4 12 13.1 WNW 11 13 6 7 1009.6 1007.1 0.0
15/09:30pm 25.3 20.4 -7.2 11 13.5 WNW 11 13 6 7 1009.7 1007.2 0.0
15/09:00pm 25.3 20.3 -8.5 10 13.7 NW 11 13 6 7 1009.7 1007.2 0.0
15/08:30pm 25.3 20.7 -8.5 10 13.7 NW 9 11 5 6 1009.6 1007.1 0.0
15/08:00pm 27.4 22.8 -8.2 9 14.8 WNW 9 11 5 6 1009.5 1007.0 0.0
15/07:30pm 28.4 23.7 -9.0 8 15.4 NW 9 13 5 7 1009.3 1006.8 0.0
15/07:00pm 30.0 25.3 -9.5 7 16.4 WNW 9 15 5 8 1009.1 1006.6 0.0
15/06:30pm 31.2 26.2 -8.6 7 17.0 WNW 11 17 6 9 1008.8 1006.3 0.0
15/06:00pm 32.3 26.4 -9.8 6 17.8 NW 15 24 8 13 1008.4 1005.8 0.0
15/05:30pm 33.2 26.0 -9.2 6 18.2 NW 22 35 12 19 1008.2 1005.6 0.0
15/05:00pm 34.0 27.4 -8.6 6 18.6 NW 19 30 10 16 1008.0 1005.4 0.0
15/04:30pm 34.2 27.7 -8.5 6 18.7 NW 19 28 10 15 1008.1 1005.5 0.0
15/04:00pm 34.5 27.6 -10.6 5 19.2 NW 20 30 11 16 1008.0 1005.4 0.0
15/03:30pm 34.2 27.3 -10.8 5 19.0 WNW 20 39 11 21 1008.2 1005.6 0.0
15/03:00pm 35.0 27.4 -10.2 5 19.4 NW 24 37 13 20 1008.3 1005.7 0.0
15/02:30pm 34.4 27.1 -10.6 5 19.1 NW 22 33 12 18 1008.4 1005.8 0.0
15/02:00pm 34.4 27.1 -10.6 5 19.1 NW 22 33 12 18 1008.7 1006.1 0.0
15/01:30pm 34.5 28.2 -10.6 5 19.1 NW 17 28 9 15 1009.0 1006.5 0.0
15/01:00pm 33.8 27.2 -8.7 6 18.5 NW 19 26 10 14 1009.2 1006.7 0.0
15/12:30pm 34.6 28.1 -8.2 6 18.9 NNW 19 28 10 15 1009.5 1007.0 0.0
15/12:00pm 33.7 26.7 -6.8 7 18.2 NW 22 46 12 25 1009.9 1007.3 0.0
15/11:30am 33.6 26.8 -5.2 8 17.9 N 22 30 12 16 1010.4 1007.8 0.0
15/11:00am 32.3 25.8 -6.1 8 17.3 N 20 32 11 17 1010.8 1008.3 0.0
15/10:30am 31.2 23.8 -6.9 8 16.7 N 24 37 13 20 1011.1 1008.6 0.0
15/10:00am 30.8 24.3 -5.7 9 16.3 N 20 32 11 17 1011.4 1008.9 0.0
15/09:30am 29.9 25.0 -3.7 11 15.4 N 13 20 7 11 1011.5 1009.0 0.0
15/09:00am 28.6 23.8 -2.5 13 14.4 N 13 20 7 11 1011.6 1009.1 0.0
15/08:30am 27.3 22.9 -2.5 14 13.7 N 11 17 6 9 1011.5 1009.0 0.0
15/08:00am 25.2 21.2 -2.4 16 12.5 NNE 9 15 5 8 1011.5 1009.0 0.0
15/07:30am 22.9 18.8 -3.4 17 11.5 N 9 13 5 7 1011.3 1008.8 0.0
15/07:00am 20.5 16.8 -2.5 21 10.0 NE 7 11 4 6 1011.2 1008.7 0.0
15/06:30am 18.1 14.4 -2.8 24 8.8 NNE 7 11 4 6 1011.0 1008.5 0.0
15/06:00am 15.6 11.4 -3.8 26 7.8 NNE 9 9 5 5 1010.7 1008.2 0.0
15/05:30am 13.4 9.7 -4.2 29 6.9 N 6 7 3 4 1010.6 1008.1 0.0
15/05:00am 14.2 10.3 -4.5 27 7.3 N 7 7 4 4 1010.3 1007.7 0.0
15/04:30am 15.1 11.2 -4.2 26 7.7 N 7 7 4 4 1010.1 1007.5 0.0
15/04:00am 15.4 11.5 -4.5 25 7.9 WNW 7 9 4 5 1010.0 1007.4 0.0
15/03:30am 16.3 12.1 -4.3 24 8.3 N 9 11 5 6 1009.9 1007.3 0.0
15/03:00am 16.2 13.7 -4.4 24 8.3 CALM 0 0 0 0 1009.6 1007.1 0.0
15/02:30am 17.3 14.7 -4.6 22 8.8 CALM 0 0 0 0 1009.5 1007.0 0.0
15/02:00am 19.5 14.9 -4.0 20 9.8 S 11 11 6 6 1009.4 1006.9 0.0
15/01:30am 19.2 13.8 -4.3 20 9.7 S 15 15 8 8 1009.7 1007.2 0.0
15/01:00am 20.1 14.7 -4.2 19 10.2 S 15 17 8 9 1010.2 1007.6 0.0
15/12:30am 20.1 15.1 -4.2 19 10.2 S 13 15 7 8 1010.5 1008.0 0.0
15/12:00am 20.6 16.0 -3.8 19 10.3 SSW 11 13 6 7 1010.9 1008.4 0.0
 
Date/Time
WST
Temp
°C
App
Temp
°C
Dew
Point
°C
Rel
Hum
%
Delta-T
°C
Wind Press
QNH
hPa
Press
MSL
hPa
Rain since
9am
mm
Dir  Spd
km/h
Gust
km/h
Spd
kts
Gust
kts
14/11:30pm 20.8 16.3 -3.6 19 10.4 S 11 13 6 7 1011.1 1008.6 0.0
14/11:00pm 21.1 16.2 -3.4 19 10.5 S 13 13 7 7 1011.3 1008.8 0.0
14/10:30pm 22.3 17.8 -3.1 18 11.1 SSW 11 13 6 7 1011.6 1009.1 0.0
14/10:00pm 23.7 18.9 -2.8 17 11.8 SSW 13 15 7 8 1011.9 1009.3 0.0
14/09:30pm 24.3 19.4 -3.1 16 12.2 SW 13 15 7 8 1012.0 1009.4 0.0
14/09:00pm 24.8 20.3 -3.6 15 12.5 SW 11 11 6 6 1011.9 1009.3 0.0
14/08:30pm 25.8 21.4 -2.8 15 12.9 SW 11 13 6 7 1011.7 1009.2 0.0
14/08:00pm 26.9 22.5 -2.8 14 13.5 SW 11 13 6 7 1011.4 1008.9 0.0
14/07:30pm 27.8 23.3 -3.1 13 14.1 WSW 11 13 6 7 1011.2 1008.7 0.0
14/07:00pm 28.8 23.9 -3.4 12 14.7 WSW 13 17 7 9 1010.8 1008.3 0.0
14/06:30pm 29.7 24.2 -5.1 10 15.6 WSW 15 20 8 11 1010.5 1008.0 0.0
14/06:00pm 30.6 24.6 -3.2 11 15.8 W 19 28 10 15 1010.1 1007.5 0.0
14/05:30pm 31.6 25.9 -3.7 10 16.4 W 17 30 9 16 1009.9 1007.3 0.0
14/05:00pm 32.1 26.3 -4.7 9 16.9 WNW 17 28 9 15 1009.9 1007.3 0.0
14/04:30pm 32.4 25.4 -3.1 10 16.8 WNW 24 35 13 19 1009.7 1007.2 0.0
14/04:00pm 32.6 26.4 -2.9 10 16.9 WNW 20 33 11 18 1009.5 1007.0 0.0

Other Formats:

Comma delimited format used in spreadsheet applications
http://www.bom.gov.au/fwo/IDW60801/IDW60801.94430.axf

JavaScript Object Notation format (JSON) in row-major order
http://www.bom.gov.au/fwo/IDW60801/IDW60801.94430.json